sensor_id;sensor_type;location;lat;lon;timestamp;temperature;humidity
10660;DHT22;5378;53.206;13.316;2024-03-06T00:02:04;5.30;99.90
10660;DHT22;5378;53.206;13.316;2024-03-06T00:04:51;5.30;99.90
10660;DHT22;5378;53.206;13.316;2024-03-06T00:07:40;5.40;99.90
10660;DHT22;5378;53.206;13.316;2024-03-06T00:10:27;5.50;99.90
10660;DHT22;5378;53.206;13.316;2024-03-06T00:13:14;5.40;99.90
10660;DHT22;5378;53.206;13.316;2024-03-06T00:16:03;5.40;99.90
10660;DHT22;5378;53.206;13.316;2024-03-06T00:18:50;5.30;99.90
10660;DHT22;5378;53.206;13.316;2024-03-06T00:21:37;5.30;99.90
10660;DHT22;5378;53.206;13.316;2024-03-06T00:24:25;5.40;99.90
10660;DHT22;5378;53.206;13.316;2024-03-06T00:27:13;5.40;99.90
10660;DHT22;5378;53.206;13.316;2024-03-06T00:30:02;5.40;99.90
10660;DHT22;5378;53.206;13.316;2024-03-06T00:32:51;5.50;99.90
10660;DHT22;5378;53.206;13.316;2024-03-06T00:35:38;5.50;99.90
10660;DHT22;5378;53.206;13.316;2024-03-06T00:38:25;5.50;99.90
10660;DHT22;5378;53.206;13.316;2024-03-06T00:41:13;5.50;99.90
10660;DHT22;5378;53.206;13.316;2024-03-06T00:44:00;5.50;99.90
10660;DHT22;5378;53.206;13.316;2024-03-06T00:46:48;5.60;99.90
10660;DHT22;5378;53.206;13.316;2024-03-06T00:49:36;5.60;99.90
10660;DHT22;5378;53.206;13.316;2024-03-06T00:52:24;5.60;99.90
10660;DHT22;5378;53.206;13.316;2024-03-06T00:55:11;5.40;99.90
10660;DHT22;5378;53.206;13.316;2024-03-06T00:57:58;5.40;99.90
10660;DHT22;5378;53.206;13.316;2024-03-06T01:00:45;5.40;99.90
10660;DHT22;5378;53.206;13.316;2024-03-06T01:03:34;5.50;99.90
10660;DHT22;5378;53.206;13.316;2024-03-06T01:06:22;5.50;99.90
10660;DHT22;5378;53.206;13.316;2024-03-06T01:09:09;5.60;99.90
10660;DHT22;5378;53.206;13.316;2024-03-06T01:11:56;5.50;99.90
10660;DHT22;5378;53.206;13.316;2024-03-06T01:14:43;5.40;99.90
10660;DHT22;5378;53.206;13.316;2024-03-06T01:17:30;5.40;99.90
10660;DHT22;5378;53.206;13.316;2024-03-06T01:20:17;5.30;99.90
10660;DHT22;5378;53.206;13.316;2024-03-06T01:23:06;5.30;99.90
10660;DHT22;5378;53.206;13.316;2024-03-06T01:25:53;5.30;99.90
10660;DHT22;5378;53.206;13.316;2024-03-06T01:28:40;5.30;99.90
10660;DHT22;5378;53.206;13.316;2024-03-06T01:31:27;5.20;99.90
10660;DHT22;5378;53.206;13.316;2024-03-06T01:34:14;5.20;99.90
10660;DHT22;5378;53.206;13.316;2024-03-06T01:37:01;5.20;99.90
10660;DHT22;5378;53.206;13.316;2024-03-06T01:39:50;5.10;99.90
10660;DHT22;5378;53.206;13.316;2024-03-06T01:42:37;5.10;99.90
10660;DHT22;5378;53.206;13.316;2024-03-06T01:45:24;5.10;99.90
10660;DHT22;5378;53.206;13.316;2024-03-06T01:48:11;5.00;99.90
10660;DHT22;5378;53.206;13.316;2024-03-06T01:51:02;5.00;99.90
10660;DHT22;5378;53.206;13.316;2024-03-06T01:53:51;5.00;99.90
10660;DHT22;5378;53.206;13.316;2024-03-06T01:56:44;4.90;99.90
10660;DHT22;5378;53.206;13.316;2024-03-06T01:59:32;5.00;99.90
10660;DHT22;5378;53.206;13.316;2024-03-06T02:02:20;5.10;99.90
10660;DHT22;5378;53.206;13.316;2024-03-06T02:05:08;5.10;99.90
10660;DHT22;5378;53.206;13.316;2024-03-06T02:07:57;5.20;99.90
10660;DHT22;5378;53.206;13.316;2024-03-06T02:10:45;5.20;99.90
10660;DHT22;5378;53.206;13.316;2024-03-06T02:13:34;5.20;99.90
10660;DHT22;5378;53.206;13.316;2024-03-06T02:16:21;5.10;99.90
10660;DHT22;5378;53.206;13.316;2024-03-06T02:19:09;5.20;99.90
10660;DHT22;5378;53.206;13.316;2024-03-06T02:21:57;5.20;99.90
10660;DHT22;5378;53.206;13.316;2024-03-06T02:24:47;5.20;99.90
10660;DHT22;5378;53.206;13.316;2024-03-06T02:27:35;5.20;99.90
10660;DHT22;5378;53.206;13.316;2024-03-06T02:30:23;5.20;99.90
10660;DHT22;5378;53.206;13.316;2024-03-06T02:33:10;5.10;99.90
10660;DHT22;5378;53.206;13.316;2024-03-06T02:35:57;5.00;99.90
10660;DHT22;5378;53.206;13.316;2024-03-06T02:38:47;5.00;99.90
10660;DHT22;5378;53.206;13.316;2024-03-06T02:41:35;5.00;99.90
10660;DHT22;5378;53.206;13.316;2024-03-06T02:44:22;5.10;99.90
10660;DHT22;5378;53.206;13.316;2024-03-06T02:47:09;5.10;99.90
10660;DHT22;5378;53.206;13.316;2024-03-06T02:49:56;5.00;99.90
10660;DHT22;5378;53.206;13.316;2024-03-06T02:52:43;5.00;99.90
10660;DHT22;5378;53.206;13.316;2024-03-06T02:55:32;4.80;99.90
10660;DHT22;5378;53.206;13.316;2024-03-06T02:58:19;4.80;99.90
10660;DHT22;5378;53.206;13.316;2024-03-06T03:01:06;4.80;99.90
10660;DHT22;5378;53.206;13.316;2024-03-06T03:03:55;4.70;99.90
10660;DHT22;5378;53.206;13.316;2024-03-06T03:06:42;4.70;99.90
10660;DHT22;5378;53.206;13.316;2024-03-06T03:09:30;4.70;99.90
10660;DHT22;5378;53.206;13.316;2024-03-06T03:12:18;4.70;99.90
10660;DHT22;5378;53.206;13.316;2024-03-06T03:15:06;4.70;99.90
10660;DHT22;5378;53.206;13.316;2024-03-06T03:17:53;4.60;99.90
10660;DHT22;5378;53.206;13.316;2024-03-06T03:20:41;4.50;99.90
10660;DHT22;5378;53.206;13.316;2024-03-06T03:23:28;4.40;99.90
10660;DHT22;5378;53.206;13.316;2024-03-06T03:26:15;4.30;99.90
10660;DHT22;5378;53.206;13.316;2024-03-06T03:29:03;4.20;99.90
10660;DHT22;5378;53.206;13.316;2024-03-06T03:31:51;4.10;99.90
10660;DHT22;5378;53.206;13.316;2024-03-06T03:34:39;3.90;99.90
10660;DHT22;5378;53.206;13.316;2024-03-06T03:37:26;3.80;99.90
10660;DHT22;5378;53.206;13.316;2024-03-06T03:40:14;3.80;99.90
10660;DHT22;5378;53.206;13.316;2024-03-06T03:43:02;3.80;99.90
10660;DHT22;5378;53.206;13.316;2024-03-06T03:45:53;3.70;99.90
10660;DHT22;5378;53.206;13.316;2024-03-06T03:48:41;3.70;99.90
10660;DHT22;5378;53.206;13.316;2024-03-06T03:51:27;3.60;99.90
10660;DHT22;5378;53.206;13.316;2024-03-06T03:54:14;3.60;99.90
10660;DHT22;5378;53.206;13.316;2024-03-06T03:57:01;3.50;99.90
10660;DHT22;5378;53.206;13.316;2024-03-06T03:59:49;3.40;99.90
10660;DHT22;5378;53.206;13.316;2024-03-06T04:02:38;3.40;99.90
10660;DHT22;5378;53.206;13.316;2024-03-06T04:05:25;3.30;99.90
10660;DHT22;5378;53.206;13.316;2024-03-06T04:08:12;3.30;99.90
10660;DHT22;5378;53.206;13.316;2024-03-06T04:10:59;3.10;99.90
10660;DHT22;5378;53.206;13.316;2024-03-06T04:13:46;3.20;99.90
10660;DHT22;5378;53.206;13.316;2024-03-06T04:16:33;3.10;99.90
10660;DHT22;5378;53.206;13.316;2024-03-06T04:19:22;3.00;99.90
10660;DHT22;5378;53.206;13.316;2024-03-06T04:22:09;3.00;99.90
10660;DHT22;5378;53.206;13.316;2024-03-06T04:24:56;3.10;99.90
10660;DHT22;5378;53.206;13.316;2024-03-06T04:27:44;3.10;99.90
10660;DHT22;5378;53.206;13.316;2024-03-06T04:30:31;3.00;99.90
10660;DHT22;5378;53.206;13.316;2024-03-06T04:33:19;3.00;99.90
10660;DHT22;5378;53.206;13.316;2024-03-06T04:36:08;2.90;99.90
10660;DHT22;5378;53.206;13.316;2024-03-06T04:38:55;2.80;99.90
10660;DHT22;5378;53.206;13.316;2024-03-06T04:41:42;2.80;99.90
10660;DHT22;5378;53.206;13.316;2024-03-06T04:44:29;2.80;99.90
10660;DHT22;5378;53.206;13.316;2024-03-06T04:47:19;2.70;99.90
10660;DHT22;5378;53.206;13.316;2024-03-06T04:50:08;2.70;99.90
10660;DHT22;5378;53.206;13.316;2024-03-06T04:52:57;2.60;99.90
10660;DHT22;5378;53.206;13.316;2024-03-06T04:55:44;2.50;99.90
10660;DHT22;5378;53.206;13.316;2024-03-06T04:58:31;2.40;99.90
10660;DHT22;5378;53.206;13.316;2024-03-06T05:01:19;2.40;99.90
10660;DHT22;5378;53.206;13.316;2024-03-06T05:04:06;2.40;99.90
10660;DHT22;5378;53.206;13.316;2024-03-06T05:07:11;2.40;99.90
10660;DHT22;5378;53.206;13.316;2024-03-06T05:10:17;2.40;99.90
10660;DHT22;5378;53.206;13.316;2024-03-06T05:13:22;2.40;99.90
10660;DHT22;5378;53.206;13.316;2024-03-06T05:16:27;2.40;99.90
10660;DHT22;5378;53.206;13.316;2024-03-06T05:19:32;2.30;99.90
10660;DHT22;5378;53.206;13.316;2024-03-06T05:22:37;2.30;99.90
10660;DHT22;5378;53.206;13.316;2024-03-06T05:25:43;2.30;99.90
10660;DHT22;5378;53.206;13.316;2024-03-06T05:28:48;2.20;99.90
10660;DHT22;5378;53.206;13.316;2024-03-06T05:31:53;2.20;99.90
10660;DHT22;5378;53.206;13.316;2024-03-06T05:34:59;2.10;99.90
10660;DHT22;5378;53.206;13.316;2024-03-06T05:38:04;2.10;99.90
10660;DHT22;5378;53.206;13.316;2024-03-06T05:41:11;2.10;99.90
10660;DHT22;5378;53.206;13.316;2024-03-06T05:44:16;2.20;99.90
10660;DHT22;5378;53.206;13.316;2024-03-06T05:47:22;2.40;99.90
10660;DHT22;5378;53.206;13.316;2024-03-06T05:50:26;2.60;99.90
10660;DHT22;5378;53.206;13.316;2024-03-06T05:53:36;2.70;99.90
10660;DHT22;5378;53.206;13.316;2024-03-06T05:56:42;2.60;99.90
10660;DHT22;5378;53.206;13.316;2024-03-06T05:59:47;2.70;99.90
10660;DHT22;5378;53.206;13.316;2024-03-06T06:02:34;2.70;99.90
10660;DHT22;5378;53.206;13.316;2024-03-06T06:05:21;2.80;99.90
10660;DHT22;5378;53.206;13.316;2024-03-06T06:08:08;2.80;99.90
10660;DHT22;5378;53.206;13.316;2024-03-06T06:10:56;2.80;99.90
10660;DHT22;5378;53.206;13.316;2024-03-06T06:13:44;2.80;99.90
10660;DHT22;5378;53.206;13.316;2024-03-06T06:16:36;2.90;99.90
10660;DHT22;5378;53.206;13.316;2024-03-06T06:19:23;2.80;99.90
10660;DHT22;5378;53.206;13.316;2024-03-06T06:22:11;2.70;99.90
10660;DHT22;5378;53.206;13.316;2024-03-06T06:24:58;2.70;99.90
10660;DHT22;5378;53.206;13.316;2024-03-06T06:27:45;2.50;99.90
10660;DHT22;5378;53.206;13.316;2024-03-06T06:30:33;2.40;99.90
10660;DHT22;5378;53.206;13.316;2024-03-06T06:33:21;2.30;99.90
10660;DHT22;5378;53.206;13.316;2024-03-06T06:36:08;2.30;99.90
10660;DHT22;5378;53.206;13.316;2024-03-06T06:38:55;2.40;99.90
10660;DHT22;5378;53.206;13.316;2024-03-06T06:41:42;2.40;99.90
10660;DHT22;5378;53.206;13.316;2024-03-06T06:44:30;2.40;99.90
10660;DHT22;5378;53.206;13.316;2024-03-06T06:47:18;2.50;99.90
10660;DHT22;5378;53.206;13.316;2024-03-06T06:50:06;2.50;99.90
10660;DHT22;5378;53.206;13.316;2024-03-06T06:52:54;2.70;99.90
10660;DHT22;5378;53.206;13.316;2024-03-06T06:55:42;2.70;99.90
10660;DHT22;5378;53.206;13.316;2024-03-06T06:58:29;2.70;99.90
10660;DHT22;5378;53.206;13.316;2024-03-06T07:01:16;2.70;99.90
10660;DHT22;5378;53.206;13.316;2024-03-06T07:04:05;2.70;99.90
10660;DHT22;5378;53.206;13.316;2024-03-06T07:06:52;2.80;99.90
10660;DHT22;5378;53.206;13.316;2024-03-06T07:09:39;3.00;99.90
10660;DHT22;5378;53.206;13.316;2024-03-06T07:12:27;3.10;99.90
10660;DHT22;5378;53.206;13.316;2024-03-06T07:15:14;3.10;99.90
10660;DHT22;5378;53.206;13.316;2024-03-06T07:18:01;3.20;99.90
10660;DHT22;5378;53.206;13.316;2024-03-06T07:20:50;3.40;99.90
10660;DHT22;5378;53.206;13.316;2024-03-06T07:23:37;3.40;99.90
10660;DHT22;5378;53.206;13.316;2024-03-06T07:26:25;3.40;99.90
10660;DHT22;5378;53.206;13.316;2024-03-06T07:29:12;3.40;99.90
10660;DHT22;5378;53.206;13.316;2024-03-06T07:32:00;3.60;99.90
10660;DHT22;5378;53.206;13.316;2024-03-06T07:34:47;3.70;99.90
10660;DHT22;5378;53.206;13.316;2024-03-06T07:37:36;3.60;99.90
10660;DHT22;5378;53.206;13.316;2024-03-06T07:40:23;3.40;99.90
10660;DHT22;5378;53.206;13.316;2024-03-06T07:43:10;3.30;99.90
10660;DHT22;5378;53.206;13.316;2024-03-06T07:45:57;3.20;99.90
10660;DHT22;5378;53.206;13.316;2024-03-06T07:48:44;3.40;99.90
10660;DHT22;5378;53.206;13.316;2024-03-06T07:51:32;3.60;99.90
10660;DHT22;5378;53.206;13.316;2024-03-06T07:54:20;3.80;99.90
10660;DHT22;5378;53.206;13.316;2024-03-06T07:57:07;4.10;99.90
10660;DHT22;5378;53.206;13.316;2024-03-06T07:59:56;4.20;99.90
10660;DHT22;5378;53.206;13.316;2024-03-06T08:02:43;4.40;99.90
10660;DHT22;5378;53.206;13.316;2024-03-06T08:05:32;4.60;99.90
10660;DHT22;5378;53.206;13.316;2024-03-06T08:08:20;4.70;99.90
10660;DHT22;5378;53.206;13.316;2024-03-06T08:11:09;4.70;99.90
10660;DHT22;5378;53.206;13.316;2024-03-06T08:13:58;4.60;99.90
10660;DHT22;5378;53.206;13.316;2024-03-06T08:16:45;4.60;99.90
10660;DHT22;5378;53.206;13.316;2024-03-06T08:19:32;4.60;99.90
10660;DHT22;5378;53.206;13.316;2024-03-06T08:22:19;4.80;99.90
10660;DHT22;5378;53.206;13.316;2024-03-06T08:25:07;4.90;99.90
10660;DHT22;5378;53.206;13.316;2024-03-06T08:27:56;5.00;99.90
10660;DHT22;5378;53.206;13.316;2024-03-06T08:30:43;5.20;99.90
10660;DHT22;5378;53.206;13.316;2024-03-06T08:33:30;5.50;99.90
10660;DHT22;5378;53.206;13.316;2024-03-06T08:36:18;5.70;99.90
10660;DHT22;5378;53.206;13.316;2024-03-06T08:39:07;5.90;99.90
10660;DHT22;5378;53.206;13.316;2024-03-06T08:41:58;6.10;99.90
10660;DHT22;5378;53.206;13.316;2024-03-06T08:44:47;6.20;99.90
10660;DHT22;5378;53.206;13.316;2024-03-06T08:47:35;6.20;99.90
10660;DHT22;5378;53.206;13.316;2024-03-06T08:50:22;6.30;99.90
10660;DHT22;5378;53.206;13.316;2024-03-06T08:53:09;6.40;99.90
10660;DHT22;5378;53.206;13.316;2024-03-06T08:55:56;6.30;99.90
10660;DHT22;5378;53.206;13.316;2024-03-06T08:58:43;6.20;99.90
10660;DHT22;5378;53.206;13.316;2024-03-06T09:01:31;6.40;99.90
10660;DHT22;5378;53.206;13.316;2024-03-06T09:04:19;6.70;99.90
10660;DHT22;5378;53.206;13.316;2024-03-06T09:07:06;6.50;99.90
10660;DHT22;5378;53.206;13.316;2024-03-06T09:09:53;6.40;99.90
10660;DHT22;5378;53.206;13.316;2024-03-06T09:12:40;6.10;99.90
10660;DHT22;5378;53.206;13.316;2024-03-06T09:15:27;5.90;99.90
10660;DHT22;5378;53.206;13.316;2024-03-06T09:18:16;6.00;99.90
10660;DHT22;5378;53.206;13.316;2024-03-06T09:21:03;6.30;99.90
10660;DHT22;5378;53.206;13.316;2024-03-06T09:23:50;6.50;99.90
10660;DHT22;5378;53.206;13.316;2024-03-06T09:26:37;6.80;99.90
10660;DHT22;5378;53.206;13.316;2024-03-06T09:29:26;7.30;99.90
10660;DHT22;5378;53.206;13.316;2024-03-06T09:32:13;7.90;99.90
10660;DHT22;5378;53.206;13.316;2024-03-06T09:35:06;7.80;99.90
10660;DHT22;5378;53.206;13.316;2024-03-06T09:37:53;7.60;99.90
10660;DHT22;5378;53.206;13.316;2024-03-06T09:40:40;7.40;99.90
10660;DHT22;5378;53.206;13.316;2024-03-06T09:43:28;7.50;99.90
10660;DHT22;5378;53.206;13.316;2024-03-06T09:46:17;7.30;99.90
10660;DHT22;5378;53.206;13.316;2024-03-06T09:49:05;7.30;99.90
10660;DHT22;5378;53.206;13.316;2024-03-06T09:51:54;7.30;99.90
10660;DHT22;5378;53.206;13.316;2024-03-06T09:54:42;7.10;99.90
10660;DHT22;5378;53.206;13.316;2024-03-06T09:57:30;6.70;99.90
10660;DHT22;5378;53.206;13.316;2024-03-06T10:00:17;6.40;99.90
10660;DHT22;5378;53.206;13.316;2024-03-06T10:03:07;5.90;99.90
10660;DHT22;5378;53.206;13.316;2024-03-06T10:05:55;5.90;99.90
10660;DHT22;5378;53.206;13.316;2024-03-06T10:08:44;5.80;99.90
10660;DHT22;5378;53.206;13.316;2024-03-06T10:11:38;5.90;99.90
10660;DHT22;5378;53.206;13.316;2024-03-06T10:14:25;5.90;99.90
10660;DHT22;5378;53.206;13.316;2024-03-06T10:17:19;6.10;99.90
10660;DHT22;5378;53.206;13.316;2024-03-06T10:20:19;6.30;99.90
10660;DHT22;5378;53.206;13.316;2024-03-06T10:23:06;6.50;99.90
10660;DHT22;5378;53.206;13.316;2024-03-06T10:25:56;6.50;99.90
10660;DHT22;5378;53.206;13.316;2024-03-06T10:28:44;6.30;99.90
10660;DHT22;5378;53.206;13.316;2024-03-06T10:31:32;6.10;99.90
10660;DHT22;5378;53.206;13.316;2024-03-06T10:34:19;6.00;99.90
10660;DHT22;5378;53.206;13.316;2024-03-06T10:37:06;6.10;99.90
10660;DHT22;5378;53.206;13.316;2024-03-06T10:39:54;6.10;99.90
10660;DHT22;5378;53.206;13.316;2024-03-06T10:42:47;6.40;99.90
10660;DHT22;5378;53.206;13.316;2024-03-06T10:45:41;6.70;99.90
10660;DHT22;5378;53.206;13.316;2024-03-06T10:48:29;7.00;99.90
10660;DHT22;5378;53.206;13.316;2024-03-06T10:51:17;7.30;99.90
10660;DHT22;5378;53.206;13.316;2024-03-06T10:54:05;7.60;99.90
10660;DHT22;5378;53.206;13.316;2024-03-06T10:56:55;7.70;99.90
10660;DHT22;5378;53.206;13.316;2024-03-06T10:59:43;7.60;99.90
10660;DHT22;5378;53.206;13.316;2024-03-06T11:02:32;7.50;99.90
10660;DHT22;5378;53.206;13.316;2024-03-06T11:05:19;7.50;99.90
10660;DHT22;5378;53.206;13.316;2024-03-06T11:08:06;7.30;99.90
10660;DHT22;5378;53.206;13.316;2024-03-06T11:11:22;7.20;99.90
10660;DHT22;5378;53.206;13.316;2024-03-06T11:14:09;7.20;99.90
10660;DHT22;5378;53.206;13.316;2024-03-06T11:16:58;7.10;99.90
10660;DHT22;5378;53.206;13.316;2024-03-06T11:20:08;6.90;99.90
10660;DHT22;5378;53.206;13.316;2024-03-06T11:23:03;6.70;99.90
10660;DHT22;5378;53.206;13.316;2024-03-06T11:25:59;6.70;99.90
10660;DHT22;5378;53.206;13.316;2024-03-06T11:28:50;6.80;99.90
10660;DHT22;5378;53.206;13.316;2024-03-06T11:31:37;7.00;99.90
10660;DHT22;5378;53.206;13.316;2024-03-06T11:34:24;7.10;99.90
10660;DHT22;5378;53.206;13.316;2024-03-06T11:37:11;7.30;99.90
10660;DHT22;5378;53.206;13.316;2024-03-06T11:40:00;7.40;99.90
10660;DHT22;5378;53.206;13.316;2024-03-06T11:42:47;7.60;99.90
10660;DHT22;5378;53.206;13.316;2024-03-06T11:45:44;7.60;99.90
10660;DHT22;5378;53.206;13.316;2024-03-06T11:48:32;7.70;99.90
10660;DHT22;5378;53.206;13.316;2024-03-06T11:51:19;7.90;99.90
10660;DHT22;5378;53.206;13.316;2024-03-06T11:54:07;8.00;99.90
10660;DHT22;5378;53.206;13.316;2024-03-06T11:56:57;8.20;99.90
10660;DHT22;5378;53.206;13.316;2024-03-06T11:59:44;7.90;99.90
10660;DHT22;5378;53.206;13.316;2024-03-06T12:02:33;7.40;99.90
10660;DHT22;5378;53.206;13.316;2024-03-06T12:05:21;7.20;99.90
10660;DHT22;5378;53.206;13.316;2024-03-06T12:08:09;7.20;99.90
10660;DHT22;5378;53.206;13.316;2024-03-06T12:10:56;7.20;99.90
10660;DHT22;5378;53.206;13.316;2024-03-06T12:13:45;7.50;99.90
10660;DHT22;5378;53.206;13.316;2024-03-06T12:16:34;7.90;99.90
10660;DHT22;5378;53.206;13.316;2024-03-06T12:19:24;8.20;99.90
10660;DHT22;5378;53.206;13.316;2024-03-06T12:22:12;8.60;99.90
10660;DHT22;5378;53.206;13.316;2024-03-06T12:25:00;8.70;99.90
10660;DHT22;5378;53.206;13.316;2024-03-06T12:27:47;8.60;99.90
10660;DHT22;5378;53.206;13.316;2024-03-06T12:30:41;8.50;99.90
10660;DHT22;5378;53.206;13.316;2024-03-06T12:33:30;8.20;99.90
10660;DHT22;5378;53.206;13.316;2024-03-06T12:36:25;8.10;99.90
10660;DHT22;5378;53.206;13.316;2024-03-06T12:39:15;7.90;99.90
10660;DHT22;5378;53.206;13.316;2024-03-06T12:42:06;7.80;99.90
10660;DHT22;5378;53.206;13.316;2024-03-06T12:44:53;7.80;99.90
10660;DHT22;5378;53.206;13.316;2024-03-06T12:47:41;8.00;99.90
10660;DHT22;5378;53.206;13.316;2024-03-06T12:50:28;8.40;99.90
10660;DHT22;5378;53.206;13.316;2024-03-06T12:53:17;8.80;99.90
10660;DHT22;5378;53.206;13.316;2024-03-06T12:56:05;9.10;99.90
10660;DHT22;5378;53.206;13.316;2024-03-06T12:58:53;9.30;99.90
10660;DHT22;5378;53.206;13.316;2024-03-06T13:01:40;9.10;99.90
10660;DHT22;5378;53.206;13.316;2024-03-06T13:04:27;8.80;99.90
10660;DHT22;5378;53.206;13.316;2024-03-06T13:07:14;8.60;99.90
10660;DHT22;5378;53.206;13.316;2024-03-06T13:10:03;8.60;99.90
10660;DHT22;5378;53.206;13.316;2024-03-06T13:12:51;8.60;99.90
10660;DHT22;5378;53.206;13.316;2024-03-06T13:15:38;8.50;99.90
10660;DHT22;5378;53.206;13.316;2024-03-06T13:18:26;8.60;99.90
10660;DHT22;5378;53.206;13.316;2024-03-06T13:21:13;8.50;99.90
10660;DHT22;5378;53.206;13.316;2024-03-06T13:24:01;8.50;99.90
10660;DHT22;5378;53.206;13.316;2024-03-06T13:26:50;8.50;99.90
10660;DHT22;5378;53.206;13.316;2024-03-06T13:29:37;8.40;99.90
10660;DHT22;5378;53.206;13.316;2024-03-06T13:32:25;8.60;99.90
10660;DHT22;5378;53.206;13.316;2024-03-06T13:35:13;8.60;99.90
10660;DHT22;5378;53.206;13.316;2024-03-06T13:38:00;8.70;99.90
10660;DHT22;5378;53.206;13.316;2024-03-06T13:40:49;8.70;99.90
10660;DHT22;5378;53.206;13.316;2024-03-06T13:43:37;8.70;99.90
10660;DHT22;5378;53.206;13.316;2024-03-06T13:46:24;8.50;99.90
10660;DHT22;5378;53.206;13.316;2024-03-06T13:49:35;8.30;99.90
10660;DHT22;5378;53.206;13.316;2024-03-06T13:52:22;8.10;99.90
10660;DHT22;5378;53.206;13.316;2024-03-06T13:55:09;8.00;99.90
10660;DHT22;5378;53.206;13.316;2024-03-06T13:57:57;8.00;99.90
10660;DHT22;5378;53.206;13.316;2024-03-06T14:00:46;8.00;99.90
10660;DHT22;5378;53.206;13.316;2024-03-06T14:03:33;8.10;99.90
10660;DHT22;5378;53.206;13.316;2024-03-06T14:06:20;8.10;99.90
10660;DHT22;5378;53.206;13.316;2024-03-06T14:09:08;8.20;99.90
10660;DHT22;5378;53.206;13.316;2024-03-06T14:11:55;8.20;99.90
10660;DHT22;5378;53.206;13.316;2024-03-06T14:14:42;8.30;99.90
10660;DHT22;5378;53.206;13.316;2024-03-06T14:17:30;8.40;99.90
10660;DHT22;5378;53.206;13.316;2024-03-06T14:20:17;8.30;99.90
10660;DHT22;5378;53.206;13.316;2024-03-06T14:23:04;8.20;99.90
10660;DHT22;5378;53.206;13.316;2024-03-06T14:25:51;8.10;99.90
10660;DHT22;5378;53.206;13.316;2024-03-06T14:28:38;8.10;99.90
10660;DHT22;5378;53.206;13.316;2024-03-06T14:31:26;8.10;99.90
10660;DHT22;5378;53.206;13.316;2024-03-06T14:34:14;8.00;99.90
10660;DHT22;5378;53.206;13.316;2024-03-06T14:37:02;8.00;99.90
10660;DHT22;5378;53.206;13.316;2024-03-06T14:39:49;8.00;99.90
10660;DHT22;5378;53.206;13.316;2024-03-06T14:42:36;8.10;99.90
10660;DHT22;5378;53.206;13.316;2024-03-06T14:45:24;8.20;99.90
10660;DHT22;5378;53.206;13.316;2024-03-06T14:48:11;8.20;99.90
10660;DHT22;5378;53.206;13.316;2024-03-06T14:51:00;8.50;99.90
10660;DHT22;5378;53.206;13.316;2024-03-06T14:53:46;8.50;99.90
10660;DHT22;5378;53.206;13.316;2024-03-06T14:56:33;8.50;99.90
10660;DHT22;5378;53.206;13.316;2024-03-06T14:59:21;8.50;99.90
10660;DHT22;5378;53.206;13.316;2024-03-06T15:02:08;8.50;99.90
10660;DHT22;5378;53.206;13.316;2024-03-06T15:04:55;8.30;99.90
10660;DHT22;5378;53.206;13.316;2024-03-06T15:07:45;8.00;99.90
10660;DHT22;5378;53.206;13.316;2024-03-06T15:10:32;7.90;99.90
10660;DHT22;5378;53.206;13.316;2024-03-06T15:13:19;7.80;99.90
10660;DHT22;5378;53.206;13.316;2024-03-06T15:16:08;7.80;99.90
10660;DHT22;5378;53.206;13.316;2024-03-06T15:18:55;7.90;99.90
10660;DHT22;5378;53.206;13.316;2024-03-06T15:21:43;8.00;99.90
10660;DHT22;5378;53.206;13.316;2024-03-06T15:24:31;8.10;99.90
10660;DHT22;5378;53.206;13.316;2024-03-06T15:27:19;8.00;99.90
10660;DHT22;5378;53.206;13.316;2024-03-06T15:30:07;8.10;99.90
10660;DHT22;5378;53.206;13.316;2024-03-06T15:32:55;8.00;99.90
10660;DHT22;5378;53.206;13.316;2024-03-06T15:35:42;7.80;99.90
10660;DHT22;5378;53.206;13.316;2024-03-06T15:38:29;7.60;99.90
10660;DHT22;5378;53.206;13.316;2024-03-06T15:41:18;7.70;99.90
10660;DHT22;5378;53.206;13.316;2024-03-06T15:44:06;7.60;99.90
10660;DHT22;5378;53.206;13.316;2024-03-06T15:46:54;7.60;99.90
10660;DHT22;5378;53.206;13.316;2024-03-06T15:49:44;7.60;99.90
10660;DHT22;5378;53.206;13.316;2024-03-06T15:52:32;7.50;99.90
10660;DHT22;5378;53.206;13.316;2024-03-06T15:55:19;7.40;99.90
10660;DHT22;5378;53.206;13.316;2024-03-06T15:58:08;7.40;99.90
10660;DHT22;5378;53.206;13.316;2024-03-06T16:00:55;7.30;99.90
10660;DHT22;5378;53.206;13.316;2024-03-06T16:03:43;7.30;99.90
10660;DHT22;5378;53.206;13.316;2024-03-06T16:06:31;7.30;99.90
10660;DHT22;5378;53.206;13.316;2024-03-06T16:09:21;7.30;99.90
10660;DHT22;5378;53.206;13.316;2024-03-06T16:12:08;7.30;99.90
10660;DHT22;5378;53.206;13.316;2024-03-06T16:14:57;7.30;99.90
10660;DHT22;5378;53.206;13.316;2024-03-06T16:17:45;7.30;99.90
10660;DHT22;5378;53.206;13.316;2024-03-06T16:20:32;7.30;99.90
10660;DHT22;5378;53.206;13.316;2024-03-06T16:23:20;7.30;99.90
10660;DHT22;5378;53.206;13.316;2024-03-06T16:26:07;7.20;99.90
10660;DHT22;5378;53.206;13.316;2024-03-06T16:28:54;7.10;99.90
10660;DHT22;5378;53.206;13.316;2024-03-06T16:31:43;7.10;99.90
10660;DHT22;5378;53.206;13.316;2024-03-06T16:34:31;7.00;99.90
10660;DHT22;5378;53.206;13.316;2024-03-06T16:37:19;7.00;99.90
10660;DHT22;5378;53.206;13.316;2024-03-06T16:40:07;6.90;99.90
10660;DHT22;5378;53.206;13.316;2024-03-06T16:42:55;6.80;99.90
10660;DHT22;5378;53.206;13.316;2024-03-06T16:45:42;6.80;99.90
10660;DHT22;5378;53.206;13.316;2024-03-06T16:48:31;6.80;99.90
10660;DHT22;5378;53.206;13.316;2024-03-06T16:51:18;6.80;99.90
10660;DHT22;5378;53.206;13.316;2024-03-06T16:54:07;6.90;99.90
10660;DHT22;5378;53.206;13.316;2024-03-06T16:56:54;7.10;99.90
10660;DHT22;5378;53.206;13.316;2024-03-06T16:59:41;6.90;99.90
10660;DHT22;5378;53.206;13.316;2024-03-06T17:02:28;6.80;99.90
10660;DHT22;5378;53.206;13.316;2024-03-06T17:05:17;6.80;99.90
10660;DHT22;5378;53.206;13.316;2024-03-06T17:08:04;6.90;99.90
10660;DHT22;5378;53.206;13.316;2024-03-06T17:10:52;6.80;99.90
10660;DHT22;5378;53.206;13.316;2024-03-06T17:13:39;6.80;99.90
10660;DHT22;5378;53.206;13.316;2024-03-06T17:16:26;6.80;99.90
10660;DHT22;5378;53.206;13.316;2024-03-06T17:19:13;6.80;99.90
10660;DHT22;5378;53.206;13.316;2024-03-06T17:22:02;6.90;99.90
10660;DHT22;5378;53.206;13.316;2024-03-06T17:24:49;6.80;99.90
10660;DHT22;5378;53.206;13.316;2024-03-06T17:27:36;6.80;99.90
10660;DHT22;5378;53.206;13.316;2024-03-06T17:30:23;6.90;99.90
10660;DHT22;5378;53.206;13.316;2024-03-06T17:33:12;6.80;99.90
10660;DHT22;5378;53.206;13.316;2024-03-06T17:36:02;6.80;99.90
10660;DHT22;5378;53.206;13.316;2024-03-06T17:38:51;6.90;99.90
10660;DHT22;5378;53.206;13.316;2024-03-06T17:41:40;6.80;99.90
10660;DHT22;5378;53.206;13.316;2024-03-06T17:44:28;6.70;99.90
10660;DHT22;5378;53.206;13.316;2024-03-06T17:47:16;6.60;99.90
10660;DHT22;5378;53.206;13.316;2024-03-06T17:50:04;6.60;99.90
10660;DHT22;5378;53.206;13.316;2024-03-06T17:52:52;6.70;99.90
10660;DHT22;5378;53.206;13.316;2024-03-06T17:55:42;6.80;99.90
10660;DHT22;5378;53.206;13.316;2024-03-06T17:58:29;6.70;99.90
10660;DHT22;5378;53.206;13.316;2024-03-06T18:01:17;6.60;99.90
10660;DHT22;5378;53.206;13.316;2024-03-06T18:04:07;6.60;99.90